createdAt,value
2022-08-24T00:02:24.162Z,101504.78
2022-08-24T00:04:50.980Z,101501.81
2022-08-24T00:07:27.404Z,101506.09
2022-08-24T00:09:54.150Z,101504.59
2022-08-24T00:12:20.514Z,101506.09
2022-08-24T00:14:46.889Z,101507.59
2022-08-24T00:17:15.750Z,101506.09
2022-08-24T00:19:42.398Z,101507.59
2022-08-24T00:22:09.346Z,101515.53
2022-08-24T00:24:35.971Z,101503.88
2022-08-24T00:27:02.353Z,101510.38
2022-08-24T00:29:28.721Z,101511.03
2022-08-24T00:31:55.144Z,101506.69
2022-08-24T00:34:21.733Z,101510.22
2022-08-24T00:36:48.094Z,101507.22
2022-08-24T00:39:14.470Z,101510.97
2022-08-24T00:41:44.510Z,101502.94
2022-08-24T00:44:11.499Z,101497.16
2022-08-24T00:46:44.649Z,101503.59
2022-08-24T00:49:13.877Z,101502.13
2022-08-24T00:51:42.949Z,101502.88
2022-08-24T00:54:11.255Z,101508.66
2022-08-24T00:56:49.815Z,101511.53
2022-08-24T00:59:24.024Z,101504.28
2022-08-24T01:01:50.511Z,101504.19
2022-08-24T01:04:18.378Z,101508.56
2022-08-24T01:06:45.463Z,101502.88
2022-08-24T01:09:11.841Z,101511.47
2022-08-24T01:11:38.298Z,101503.38
2022-08-24T01:14:04.705Z,101505.59
2022-08-24T01:16:50.094Z,101504.19
2022-08-24T01:19:29.418Z,101505.59
2022-08-24T01:22:06.916Z,101502.69
2022-08-24T01:24:35.369Z,101504.09
2022-08-24T01:27:01.814Z,101509.22
2022-08-24T01:29:29.136Z,101509.88
2022-08-24T01:31:57.472Z,101501.22
2022-08-24T01:34:23.845Z,101507.00
2022-08-24T01:36:51.375Z,101508.38
2022-08-24T01:39:21.060Z,101508.38
2022-08-24T01:41:48.310Z,101509.72
2022-08-24T01:44:14.690Z,101509.72
2022-08-24T01:46:44.884Z,101509.81
2022-08-24T01:49:11.497Z,101511.19
2022-08-24T01:51:38.732Z,101508.25
2022-08-24T01:54:05.743Z,101514.03
2022-08-24T01:56:32.948Z,101513.94
2022-08-24T01:58:59.740Z,101523.34
2022-08-24T02:01:26.432Z,101519.81
2022-08-24T02:03:52.967Z,101511.03
2022-08-24T02:06:20.838Z,101513.94
2022-08-24T02:08:47.422Z,101523.34
2022-08-24T02:11:15.040Z,101518.31
2022-08-24T02:13:41.476Z,101528.41
2022-08-24T02:16:07.878Z,101528.41
2022-08-24T02:18:35.106Z,101525.50
2022-08-24T02:21:02.207Z,101528.41
2022-08-24T02:23:28.797Z,101528.97
2022-08-24T02:25:55.441Z,101531.09
2022-08-24T02:28:21.810Z,101521.09
2022-08-24T02:30:48.267Z,101516.75
2022-08-24T02:33:14.757Z,101523.91
2022-08-24T02:35:42.099Z,101529.69
2022-08-24T02:38:09.947Z,101528.22
2022-08-24T02:40:37.727Z,101526.78
2022-08-24T02:43:05.099Z,101531.00
2022-08-24T02:45:32.075Z,101523.06
2022-08-24T02:47:59.070Z,101519.44
2022-08-24T02:50:26.573Z,101512.16
2022-08-24T02:52:54.280Z,101523.00
2022-08-24T02:55:21.885Z,101523.06
2022-08-24T02:57:51.301Z,101507.88
2022-08-24T03:00:18.897Z,101507.78
2022-08-24T03:02:50.128Z,101514.97
2022-08-24T03:05:17.189Z,101517.22
2022-08-24T03:07:44.437Z,101514.97
2022-08-24T03:10:10.877Z,101521.47
2022-08-24T03:12:37.380Z,101512.81
2022-08-24T03:15:04.819Z,101515.69
2022-08-24T03:17:33.514Z,101514.97
2022-08-24T03:20:00.531Z,101515.63
2022-08-24T03:22:28.363Z,101514.19
2022-08-24T03:24:54.746Z,101511.97
2022-08-24T03:27:21.433Z,101511.97
2022-08-24T03:29:47.839Z,101520.19
2022-08-24T03:32:16.490Z,101529.41
2022-08-24T03:34:43.103Z,101523.47
2022-08-24T03:37:09.490Z,101527.91
2022-08-24T03:39:35.882Z,101529.41
2022-08-24T03:42:02.250Z,101532.31
2022-08-24T03:44:28.656Z,101530.94
2022-08-24T03:46:55.234Z,101528.78
2022-08-24T03:49:23.555Z,101518.59
2022-08-24T03:51:50.248Z,101522.88
2022-08-24T03:54:19.794Z,101528.03
2022-08-24T03:56:46.528Z,101523.72
2022-08-24T03:59:16.606Z,101519.44
2022-08-24T04:01:46.238Z,101530.94
2022-08-24T04:04:14.318Z,101536.59
2022-08-24T04:06:44.268Z,101533.69
2022-08-24T04:09:11.666Z,101539.59
2022-08-24T04:11:41.423Z,101541.06
2022-08-24T04:14:08.717Z,101543.22
2022-08-24T04:16:51.700Z,101539.59
2022-08-24T04:19:29.704Z,101543.88
2022-08-24T04:22:00.608Z,101538.09
2022-08-24T04:24:26.994Z,101549.66
2022-08-24T04:26:53.481Z,101543.13
2022-08-24T04:29:20.339Z,101552.47
2022-08-24T04:31:50.971Z,101549.75
2022-08-24T04:34:18.339Z,101554.16
2022-08-24T04:36:45.171Z,101545.38
2022-08-24T04:39:12.178Z,101551.16
2022-08-24T04:41:54.641Z,101554.16
2022-08-24T04:44:21.364Z,101553.41
2022-08-24T04:46:47.739Z,101559.94
2022-08-24T04:49:14.241Z,101557.78
2022-08-24T04:51:40.633Z,101561.06
2022-08-24T04:54:08.368Z,101565.63
2022-08-24T04:56:34.859Z,101572.44
2022-08-24T04:59:01.277Z,101567.28
2022-08-24T05:01:29.296Z,101565.16
2022-08-24T05:03:56.751Z,101567.31
2022-08-24T05:06:23.867Z,101568.53
2022-08-24T05:08:50.274Z,101577.78
2022-08-24T05:11:17.377Z,101567.44
2022-08-24T05:13:44.584Z,101576.97
2022-08-24T05:16:12.125Z,101574.41
2022-08-24T05:18:39.066Z,101583.00
2022-08-24T05:21:09.309Z,101586.91
2022-08-24T05:23:36.187Z,101589.34
2022-08-24T05:26:10.219Z,101593.72
2022-08-24T05:28:37.265Z,101599.69
2022-08-24T05:31:10.238Z,101593.91
2022-08-24T05:33:37.160Z,101598.34
2022-08-24T05:36:04.121Z,101594.09
2022-08-24T05:38:31.901Z,101602.81
2022-08-24T05:40:58.315Z,101597.03
2022-08-24T05:43:26.766Z,101598.53
2022-08-24T05:45:54.769Z,101602.81
2022-08-24T05:48:21.138Z,101602.81
2022-08-24T05:51:05.548Z,101611.59
2022-08-24T05:53:34.562Z,101607.97
2022-08-24T05:56:02.997Z,101610.84
2022-08-24T05:58:31.058Z,101598.53
2022-08-24T06:01:05.226Z,101605.06
2022-08-24T06:03:31.682Z,101609.38
2022-08-24T06:05:58.085Z,101607.22
2022-08-24T06:08:24.557Z,101615.91
2022-08-24T06:10:50.930Z,101618.78
2022-08-24T06:13:18.031Z,101620.94
2022-08-24T06:15:59.378Z,101615.16
2022-08-24T06:18:30.890Z,101615.91
2022-08-24T06:20:57.890Z,101615.91
2022-08-24T06:23:24.397Z,101623.16
2022-08-24T06:26:20.208Z,101621.69
2022-08-24T06:28:49.409Z,101630.44
2022-08-24T06:31:16.282Z,101628.94
2022-08-24T06:33:42.712Z,101617.38
2022-08-24T06:36:09.176Z,101623.16
2022-08-24T06:38:35.559Z,101616.00
2022-08-24T06:41:04.522Z,101623.91
2022-08-24T06:43:31.606Z,101624.66
2022-08-24T06:46:01.684Z,101633.34
2022-08-24T06:48:32.649Z,101636.22
2022-08-24T06:50:59.314Z,101636.22
2022-08-24T06:53:26.475Z,101639.22
2022-08-24T06:55:55.659Z,101636.97
2022-08-24T06:58:22.053Z,101640.59
2022-08-24T07:00:49.010Z,101646.38
2022-08-24T07:03:17.470Z,101650.78
2022-08-24T07:05:52.679Z,101650.00
2022-08-24T07:08:39.321Z,101658.03
2022-08-24T07:11:08.088Z,101659.56
2022-08-24T07:13:34.459Z,101653.75
2022-08-24T07:16:00.972Z,101655.28
2022-08-24T07:18:28.788Z,101656.75
2022-08-24T07:20:55.172Z,101653.88
2022-08-24T07:23:42.310Z,101653.22
2022-08-24T07:26:21.736Z,101652.47
2022-08-24T07:28:50.936Z,101659.75
2022-08-24T07:31:17.653Z,101650.97
2022-08-24T07:33:54.727Z,101653.88
2022-08-24T07:36:22.500Z,101650.97
2022-08-24T07:38:49.545Z,101664.78
2022-08-24T07:41:38.168Z,101668.41
2022-08-24T07:44:02.267Z,101669.19
2022-08-24T07:46:28.935Z,101668.50
2022-08-24T07:49:11.707Z,101672.06
2022-08-24T07:51:39.287Z,101673.56
2022-08-24T07:54:13.188Z,101675.72
2022-08-24T07:56:42.346Z,101668.50
2022-08-24T07:59:13.055Z,101675.81
2022-08-24T08:01:39.896Z,101668.50
2022-08-24T08:04:06.413Z,101675.81
2022-08-24T08:06:32.779Z,101676.53
2022-08-24T08:09:02.908Z,101672.16
2022-08-24T08:11:29.580Z,101675.81
2022-08-24T08:13:55.959Z,101678.69
2022-08-24T08:16:23.670Z,101677.28
2022-08-24T08:18:56.426Z,101677.28
2022-08-24T08:21:50.784Z,101683.06
2022-08-24T08:24:18.062Z,101683.06
2022-08-24T08:26:51.263Z,101675.91
2022-08-24T08:29:35.870Z,101670.13
2022-08-24T08:32:02.257Z,101662.19
2022-08-24T08:34:28.785Z,101673.00
2022-08-24T08:36:56.265Z,101671.59
2022-08-24T08:39:23.004Z,101676.00
2022-08-24T08:41:56.981Z,101669.44
2022-08-24T08:44:35.498Z,101676.72
2022-08-24T08:47:02.038Z,101677.47
2022-08-24T08:49:50.964Z,101676.81
2022-08-24T08:52:36.852Z,101684.75
2022-08-24T08:55:06.105Z,101674.69
2022-08-24T08:57:39.733Z,101680.47
2022-08-24T09:00:15.841Z,101681.94
2022-08-24T09:02:57.950Z,101676.16
2022-08-24T09:05:43.790Z,101677.66
2022-08-24T09:08:24.055Z,101683.44
2022-08-24T09:11:06.051Z,101679.13
2022-08-24T09:13:51.332Z,101684.19
2022-08-24T09:16:36.067Z,101679.88
2022-08-24T09:19:15.093Z,101673.34
2022-08-24T09:21:45.458Z,101674.84
2022-08-24T09:24:34.321Z,101674.84
2022-08-24T09:27:16.257Z,101676.34
2022-08-24T09:29:46.126Z,101677.84
2022-08-24T09:32:34.359Z,101672.06
2022-08-24T09:35:01.772Z,101677.84
2022-08-24T09:37:46.881Z,101680.75
2022-08-24T09:40:23.857Z,101682.22
2022-08-24T09:43:08.776Z,101673.53
2022-08-24T09:45:44.444Z,101686.59
2022-08-24T09:48:30.729Z,101680.06
2022-08-24T09:51:13.274Z,101675.00
2022-08-24T09:53:45.790Z,101672.88
2022-08-24T09:56:27.925Z,101675.78
2022-08-24T09:59:00.977Z,101662.06
2022-08-24T10:01:31.092Z,101670.84
2022-08-24T10:04:08.523Z,101661.41
2022-08-24T10:06:54.283Z,101674.47
2022-08-24T10:09:39.385Z,101668.69
2022-08-24T10:12:05.780Z,101667.94
2022-08-24T10:14:39.359Z,101667.94
2022-08-24T10:17:19.034Z,101669.41
2022-08-24T10:20:00.362Z,101662.91
2022-08-24T10:23:05.348Z,101659.34
2022-08-24T10:25:49.918Z,101651.41
2022-08-24T10:28:35.346Z,101649.25
2022-08-24T10:31:13.105Z,101655.03
2022-08-24T10:33:52.015Z,101654.31
2022-08-24T10:36:31.459Z,101653.56
2022-08-24T10:39:28.611Z,101646.28
2022-08-24T10:42:11.293Z,101647.78
2022-08-24T10:44:41.324Z,101647.78
2022-08-24T10:47:21.044Z,101643.47
2022-08-24T10:49:56.220Z,101637.69
2022-08-24T10:52:32.331Z,101637.78
2022-08-24T10:55:11.499Z,101641.31
2022-08-24T10:57:39.678Z,101640.59
2022-08-24T11:00:07.052Z,101641.31
2022-08-24T11:02:36.946Z,101634.16
2022-08-24T11:05:05.785Z,101646.47
2022-08-24T11:07:32.219Z,101641.41
2022-08-24T11:10:00.048Z,101636.38
2022-08-24T11:12:27.877Z,101630.56
2022-08-24T11:14:54.980Z,101632.72
2022-08-24T11:17:21.623Z,101626.28
2022-08-24T11:19:48.487Z,101629.94
2022-08-24T11:22:27.567Z,101632.09
2022-08-24T11:24:54.237Z,101632.09
2022-08-24T11:27:26.398Z,101633.56
2022-08-24T11:29:52.687Z,101628.53
2022-08-24T11:32:25.846Z,101617.72
2022-08-24T11:34:52.212Z,101624.97
2022-08-24T11:37:24.003Z,101630.75
2022-08-24T11:39:51.408Z,101617.72
2022-08-24T11:42:39.917Z,101623.50
2022-08-24T11:45:10.310Z,101619.19
2022-08-24T11:47:59.869Z,101627.88
2022-08-24T11:50:34.524Z,101615.56
2022-08-24T11:53:03.773Z,101632.25
2022-08-24T11:56:00.232Z,101612.75
2022-08-24T11:58:45.889Z,101617.13
2022-08-24T12:01:14.160Z,101604.81
2022-08-24T12:03:51.900Z,101615.00
2022-08-24T12:06:33.445Z,101609.13
2022-08-24T12:09:26.630Z,101614.22
2022-08-24T12:12:07.982Z,101612.16
2022-08-24T12:14:41.150Z,101605.72
2022-08-24T12:17:18.876Z,101618.81
2022-08-24T12:19:49.071Z,101607.88
2022-08-24T12:22:15.438Z,101600.69
2022-08-24T12:24:46.146Z,101607.97
2022-08-24T12:27:13.080Z,101607.97
2022-08-24T12:29:51.417Z,101609.44
2022-08-24T12:32:17.713Z,101606.56
2022-08-24T12:34:49.679Z,101602.91
2022-08-24T12:37:21.725Z,101610.13
2022-08-24T12:40:00.259Z,101613.06
2022-08-24T12:42:40.583Z,101602.19
2022-08-24T12:45:14.132Z,101600.84
2022-08-24T12:47:46.508Z,101605.91
2022-08-24T12:50:15.508Z,101595.16
2022-08-24T12:52:49.159Z,101594.50
2022-08-24T12:55:20.900Z,101592.25
2022-08-24T12:57:57.761Z,101587.97
2022-08-24T13:00:37.901Z,101585.13
2022-08-24T13:03:08.284Z,101588.13
2022-08-24T13:05:39.026Z,101583.84
2022-08-24T13:08:28.348Z,101585.31
2022-08-24T13:10:59.914Z,101588.22
2022-08-24T13:13:39.590Z,101579.63
2022-08-24T13:16:08.019Z,101598.53
2022-08-24T13:19:00.820Z,101589.88
2022-08-24T13:21:34.593Z,101583.41
2022-08-24T13:24:19.877Z,101589.94
2022-08-24T13:26:46.306Z,101586.41
2022-08-24T13:29:13.941Z,101587.13
2022-08-24T13:31:43.384Z,101591.44
2022-08-24T13:34:10.027Z,101603.03
2022-08-24T13:36:45.492Z,101592.94
2022-08-24T13:39:12.021Z,101592.94
2022-08-24T13:41:49.466Z,101594.53
2022-08-24T13:44:19.166Z,101589.38
2022-08-24T13:47:08.618Z,101589.38
2022-08-24T13:49:53.129Z,101587.13
2022-08-24T13:52:22.387Z,101588.66
2022-08-24T13:54:53.251Z,101582.03
2022-08-24T13:57:24.823Z,101581.34
2022-08-24T13:59:51.098Z,101578.53
2022-08-24T14:02:17.367Z,101577.16
2022-08-24T14:04:47.099Z,101576.47
2022-08-24T14:07:19.087Z,101565.63
2022-08-24T14:10:00.369Z,101568.47
2022-08-24T14:12:29.787Z,101561.34
2022-08-24T14:15:06.742Z,101565.84
2022-08-24T14:17:55.076Z,101559.31
2022-08-24T14:20:43.271Z,101565.84
2022-08-24T14:23:18.745Z,101560.88
2022-08-24T14:25:45.107Z,101573.22
2022-08-24T14:28:25.069Z,101571.06
2022-08-24T14:31:12.770Z,101567.47
2022-08-24T14:33:43.847Z,101569.53
2022-08-24T14:36:15.176Z,101566.75
2022-08-24T14:38:46.300Z,101562.44
2022-08-24T14:41:16.824Z,101566.09
2022-08-24T14:43:55.655Z,101561.13
2022-08-24T14:46:40.879Z,101553.09
2022-08-24T14:49:16.607Z,101556.06
2022-08-24T14:51:57.254Z,101560.56
2022-08-24T14:54:23.551Z,101557.56
2022-08-24T14:57:08.319Z,101557.66
2022-08-24T14:59:43.034Z,101554.91
2022-08-24T15:02:28.532Z,101549.78
2022-08-24T15:05:14.084Z,101545.56
2022-08-24T15:07:40.562Z,101535.47
2022-08-24T15:10:11.454Z,101546.38
2022-08-24T15:12:39.149Z,101539.84
2022-08-24T15:15:10.334Z,101539.09
2022-08-24T15:17:41.467Z,101539.03
2022-08-24T15:20:26.274Z,101536.22
2022-08-24T15:22:55.156Z,101530.50
2022-08-24T15:25:39.799Z,101523.28
2022-08-24T15:28:07.933Z,101539.94
2022-08-24T15:30:34.890Z,101544.97
2022-08-24T15:33:04.414Z,101540.66
2022-08-24T15:35:32.267Z,101537.69
2022-08-24T15:38:12.853Z,101539.94
2022-08-24T15:40:39.285Z,101533.41
2022-08-24T15:43:11.688Z,101533.47
2022-08-24T15:45:38.742Z,101537.03
2022-08-24T15:48:05.621Z,101541.41
2022-08-24T15:50:33.692Z,101537.13
2022-08-24T15:53:00.104Z,101537.84
2022-08-24T15:55:28.067Z,101535.59
2022-08-24T15:57:54.452Z,101533.47
2022-08-24T16:00:44.449Z,101530.59
2022-08-24T16:03:24.937Z,101537.84
2022-08-24T16:05:52.037Z,101536.38
2022-08-24T16:08:18.445Z,101526.25
2022-08-24T16:10:44.740Z,101536.38
2022-08-24T16:13:20.524Z,101522.63
2022-08-24T16:15:48.068Z,101528.50
2022-08-24T16:18:14.725Z,101527.00
2022-08-24T16:20:41.084Z,101525.53
2022-08-24T16:23:09.019Z,101525.53
2022-08-24T16:25:39.838Z,101520.47
2022-08-24T16:28:12.454Z,101521.94
2022-08-24T16:30:42.083Z,101521.94
2022-08-24T16:33:08.461Z,101523.38
2022-08-24T16:35:34.809Z,101529.16
2022-08-24T16:38:01.249Z,101523.44
2022-08-24T16:40:27.994Z,101530.72
2022-08-24T16:42:55.449Z,101525.59
2022-08-24T16:45:21.889Z,101528.50
2022-08-24T16:47:48.306Z,101533.63
2022-08-24T16:50:27.513Z,101536.50
2022-08-24T16:52:54.047Z,101530.72
2022-08-24T16:55:21.066Z,101531.47
2022-08-24T16:57:48.152Z,101524.94
2022-08-24T17:00:16.105Z,101533.63
2022-08-24T17:02:42.784Z,101536.50
2022-08-24T17:05:09.250Z,101538.00
2022-08-24T17:07:35.625Z,101533.94
2022-08-24T17:10:02.694Z,101533.84
2022-08-24T17:12:31.120Z,101541.72
2022-08-24T17:14:58.670Z,101535.19
2022-08-24T17:17:25.038Z,101533.78
2022-08-24T17:19:53.018Z,101537.34
2022-08-24T17:22:19.602Z,101538.09
2022-08-24T17:24:45.955Z,101541.72
2022-08-24T17:27:18.193Z,101539.56
2022-08-24T17:29:54.211Z,101549.09
2022-08-24T17:32:20.577Z,101551.91
2022-08-24T17:34:46.976Z,101548.25
2022-08-24T17:37:13.349Z,101549.75
2022-08-24T17:39:39.715Z,101556.28
2022-08-24T17:42:20.975Z,101552.72
2022-08-24T17:44:52.651Z,101558.50
2022-08-24T17:47:19.006Z,101562.16
2022-08-24T17:49:46.843Z,101563.66
2022-08-24T17:52:13.405Z,101560.00
2022-08-24T17:54:39.766Z,101566.53
2022-08-24T17:57:06.125Z,101567.28
2022-08-24T17:59:34.712Z,101558.59
2022-08-24T18:02:05.054Z,101568.03
2022-08-24T18:04:31.809Z,101570.94
2022-08-24T18:06:59.168Z,101574.56
2022-08-24T18:09:37.453Z,101575.31
2022-08-24T18:12:06.797Z,101581.09
2022-08-24T18:14:34.477Z,101581.84
2022-08-24T18:17:08.621Z,101587.00
2022-08-24T18:19:35.163Z,101596.34
2022-08-24T18:22:03.855Z,101595.69
2022-08-24T18:24:33.324Z,101597.91
2022-08-24T18:27:10.357Z,101605.19
2022-08-24T18:29:37.067Z,101599.31
2022-08-24T18:32:03.716Z,101602.22
2022-08-24T18:34:31.131Z,101605.84
2022-08-24T18:36:57.489Z,101609.50
2022-08-24T18:39:23.875Z,101610.97
2022-08-24T18:41:50.248Z,101612.47
2022-08-24T18:44:17.590Z,101618.41
2022-08-24T18:46:43.978Z,101618.41
2022-08-24T18:49:10.343Z,101618.41
2022-08-24T18:51:37.199Z,101614.13
2022-08-24T18:54:05.286Z,101619.94
2022-08-24T18:56:31.656Z,101630.75
2022-08-24T18:58:58.134Z,101634.31
2022-08-24T19:01:24.945Z,101638.53
2022-08-24T19:03:51.357Z,101635.63
2022-08-24T19:06:17.729Z,101635.50
2022-08-24T19:08:44.090Z,101634.81
2022-08-24T19:11:11.375Z,101639.97
2022-08-24T19:13:38.758Z,101644.31
2022-08-24T19:16:05.124Z,101637.06
2022-08-24T19:18:31.497Z,101639.97
2022-08-24T19:21:00.791Z,101628.38
2022-08-24T19:23:27.883Z,101641.38
2022-08-24T19:25:54.608Z,101632.69
2022-08-24T19:28:21.394Z,101632.69
2022-08-24T19:30:48.893Z,101631.19
2022-08-24T19:33:16.954Z,101628.94
2022-08-24T19:35:43.297Z,101634.00
2022-08-24T19:38:09.649Z,101634.00
2022-08-24T19:40:36.150Z,101631.78
2022-08-24T19:43:05.746Z,101638.31
2022-08-24T19:45:53.425Z,101644.09
2022-08-24T19:48:20.020Z,101629.63
2022-08-24T19:50:46.384Z,101636.81
2022-08-24T19:53:12.917Z,101638.22
2022-08-24T19:55:39.323Z,101635.31
2022-08-24T19:58:06.849Z,101635.31
2022-08-24T20:00:37.073Z,101640.38
2022-08-24T20:03:05.147Z,101645.41
2022-08-24T20:05:32.087Z,101645.41
2022-08-24T20:07:58.467Z,101644.66
2022-08-24T20:10:24.835Z,101642.47
2022-08-24T20:12:51.210Z,101646.84
2022-08-24T20:15:17.780Z,101645.34
2022-08-24T20:17:44.142Z,101638.13
2022-08-24T20:20:10.800Z,101651.16
2022-08-24T20:22:44.383Z,101648.25
2022-08-24T20:25:10.737Z,101651.16
2022-08-24T20:27:37.201Z,101654.03
2022-08-24T20:30:03.706Z,101648.25
2022-08-24T20:32:31.020Z,101652.53
2022-08-24T20:34:57.759Z,101654.03
2022-08-24T20:37:27.410Z,101652.53
2022-08-24T20:39:55.355Z,101656.84
2022-08-24T20:42:25.364Z,101656.84
2022-08-24T20:44:51.722Z,101651.06
2022-08-24T20:47:18.145Z,101657.59
2022-08-24T20:49:44.561Z,101658.34
2022-08-24T20:52:10.929Z,101651.06
2022-08-24T20:54:39.595Z,101646.75
2022-08-24T20:57:06.648Z,101649.56
2022-08-24T20:59:34.218Z,101658.25
2022-08-24T21:02:01.198Z,101659.00
2022-08-24T21:04:27.557Z,101659.66
2022-08-24T21:06:55.201Z,101658.25
2022-08-24T21:09:21.595Z,101659.66
2022-08-24T21:11:48.268Z,101653.88
2022-08-24T21:14:14.658Z,101657.44
2022-08-24T21:16:41.364Z,101653.78
2022-08-24T21:19:08.201Z,101653.69
2022-08-24T21:21:34.726Z,101650.81
2022-08-24T21:24:01.427Z,101652.97
2022-08-24T21:26:27.865Z,101663.81
2022-08-24T21:28:55.689Z,101652.97
2022-08-24T21:31:22.077Z,101658.00
2022-08-24T21:34:07.008Z,101650.81
2022-08-24T21:36:33.375Z,101658.00
2022-08-24T21:38:59.888Z,101664.56
2022-08-24T21:41:29.253Z,101654.44
2022-08-24T21:43:55.789Z,101661.75
2022-08-24T21:46:28.472Z,101656.69
2022-08-24T21:48:54.870Z,101672.56
2022-08-24T21:51:21.221Z,101668.91
2022-08-24T21:53:48.012Z,101672.56
2022-08-24T21:56:16.307Z,101669.66
2022-08-24T21:58:46.270Z,101659.50
2022-08-24T22:01:12.641Z,101671.81
2022-08-24T22:03:40.229Z,101666.72
2022-08-24T22:06:07.912Z,101663.03
2022-08-24T22:08:34.525Z,101670.34
2022-08-24T22:11:00.886Z,101663.81
2022-08-24T22:13:27.274Z,101663.81
2022-08-24T22:15:53.655Z,101665.19
2022-08-24T22:18:20.078Z,101668.84
2022-08-24T22:20:46.437Z,101674.63
2022-08-24T22:23:12.794Z,101668.09
2022-08-24T22:25:39.151Z,101673.88
2022-08-24T22:28:05.542Z,101671.09
2022-08-24T22:30:32.026Z,101668.09
2022-08-24T22:32:59.295Z,101668.09
2022-08-24T22:35:25.828Z,101672.41
2022-08-24T22:37:52.186Z,101668.09
2022-08-24T22:40:18.996Z,101665.13
2022-08-24T22:42:45.691Z,101672.41
2022-08-24T22:45:12.043Z,101678.22
2022-08-24T22:47:38.415Z,101665.13
2022-08-24T22:50:05.125Z,101671.66
2022-08-24T22:52:31.489Z,101669.44
2022-08-24T22:54:57.877Z,101663.63
2022-08-24T22:57:24.505Z,101662.91
2022-08-24T22:59:53.190Z,101665.78
2022-08-24T23:02:19.867Z,101662.91
2022-08-24T23:04:46.949Z,101652.78
2022-08-24T23:07:13.324Z,101657.09
2022-08-24T23:09:44.995Z,101650.53
2022-08-24T23:12:12.038Z,101654.88
2022-08-24T23:14:38.405Z,101661.41
2022-08-24T23:17:04.767Z,101654.88
2022-08-24T23:19:50.026Z,101648.97
2022-08-24T23:22:16.893Z,101654.78
2022-08-24T23:24:43.737Z,101654.13
2022-08-24T23:27:10.359Z,101649.72
2022-08-24T23:29:36.772Z,101645.34
2022-08-24T23:32:03.229Z,101650.41
2022-08-24T23:34:29.578Z,101651.78
2022-08-24T23:36:55.958Z,101640.22
2022-08-24T23:39:22.310Z,101638.81
2022-08-24T23:41:48.751Z,101647.50
2022-08-24T23:44:16.384Z,101637.31
2022-08-24T23:46:43.161Z,101641.63
2022-08-24T23:49:09.568Z,101640.13
2022-08-24T23:51:36.366Z,101639.38
2022-08-24T23:54:02.799Z,101631.34
2022-08-24T23:56:31.719Z,101630.59
2022-08-24T23:58:59.123Z,101635.66
